LFKB/BIA METAR and TAF weather

Enter ICAO airport designator
Station Type Date Time Source
LFKB METAR 2021/05/15 01:00 UTC NOAA

LFKB 150100Z AUTO 24003KT CAVOK 10/10 Q1011 NOSIG


Station Type Date Time Source
LFKB Decoded METAR 2021/05/15 01:00 UTC NOAA

Bastia, France (LFKB) 42-33N 009-29E 12M
May 14, 2021 - 09:00 PM EDT / 2021.05.15 0100 UTC
Wind: from the WSW (240 degrees) at 3 MPH (3 KT):0
Visibility: greater than 7 mile(s):0
Temperature: 50 F (10 C)
Dew Point: 50 F (10 C)
Relative Humidity: 100%
Pressure (altimeter): 29.85 in. Hg (1011 hPa)
ob: LFKB 150100Z AUTO 24003KT CAVOK 10/10 Q1011 NOSIG
cycle: 1

Station Type Date Time Source
LFKB TAF 2021/05/14 21:22 UTC NOAA

TAF LFKB 142000Z 1421/1521 23005KT 9999 SCT020 TX20/1510Z TN09/1503Z
BECMG 1422/1424 CAVOK
BECMG 1508/1510 14010KT
BECMG 1518/1520 23005KT

Example: see airport list